Current | Forecast
Updated: 4:00 AM +07 on August 18, 2017
Observed at Tolmachevo, Russia
Temperature 57°F
Humidity 94%
Dew Point 55°F
Wind NW at 4 mph
Pressure 29.98 in (Steady)
Conditions Mostly Cloudy
Visibility 6.2 miles
UV 0 out of 16
Clouds Mostly Cloudy (BKN) : 4600 ft
Yesterday's Maximum 73°F
Yesterday's Minimum 45°F approx.
Yesterday's Heating Degree Days 6 approx.
Sunrise5:13 AM +06
Sunset7:59 PM +06
Moon Rise12:56 AM +06
Moon Set5:33 PM +06
Moon PhaseMoon Phase
Waning Crescent
Raw METARMETAR UNNT 172100Z 32002MPS 9999 BKN046 14/13 Q1015 R25/090070 R34/090070 NOSIG RMK QFE751/1001


Monday
. High: 55° F.
Tuesday
. High: 66° F.
Wednesday
. High: 71° F.
Thursday
. High: 68° F.
Friday
. High: 68° F.
Saturday
. High: 69° F.
Sunday
. High: 75° F.
Monday
. High: 68° F.

Units: English | Metric

Find the Weather for any City, State or Zipcode, or Country:

U.S. State List | Severe Weather | Tropical Storms | Ski Conditions
United States | Canada | Central America | South America | Asia | Europe | Australia | Africa | Islands

Weather Underground

© Copyright 2017
The Weather Company, LLC